Time;durP1;ratioP1;P1;durP2;ratioP2;P2;SDS_P1;SDS_P2;PMS_P1;PMS_P2;Temp;Humidity;BMP_temperature;BMP_pressure;BME280_temperature;BME280_humidity;BME280_pressure;Samples;Min_cycle;Max_cycle;Signal;HPM_P1;HPM_P2
2022/05/02 00:01:52;;;;;;;;;23.40;22.40;;;;;16.51;44.31;98965.66;6277209;27;98504;-74
2022/05/02 00:04:56;;;;;;;;;23.40;18.40;;;;;16.39;44.53;98963.91;6271901;27;96623;-75
2022/05/02 00:07:59;;;;;;;;;22.20;21.00;;;;;16.36;44.44;98964.44;6288380;27;96512;-74
2022/05/02 00:11:03;;;;;;;;;21.20;20.20;;;;;16.29;44.71;98965.72;6292829;27;98649;-74
2022/05/02 00:14:06;;;;;;;;;22.25;20.25;;;;;16.23;44.68;98969.44;6277700;27;99501;-75
2022/05/02 00:17:13;;;;;;;;;23.60;20.60;;;;;16.14;44.89;98963.66;6290514;27;96993;-75
2022/05/02 00:20:17;;;;;;;;;21.80;20.00;;;;;15.91;45.35;98934.03;6314170;27;97069;-74
2022/05/02 00:23:21;;;;;;;;;21.00;21.00;;;;;16.00;45.11;98960.53;6286188;27;97309;-75
2022/05/02 00:26:24;;;;;;;;;23.60;22.00;;;;;15.95;45.20;98962.34;6281590;27;97768;-74
2022/05/02 00:29:27;;;;;;;;;25.00;24.00;;;;;15.93;45.24;98961.81;6300057;27;96538;-74
2022/05/02 00:32:32;;;;;;;;;26.80;24.20;;;;;15.82;45.19;98946.44;6302742;27;96973;-74
2022/05/02 00:35:35;;;;;;;;;30.00;26.00;;;;;15.98;45.00;98970.00;6284732;27;97045;-74
2022/05/02 00:38:39;;;;;;;;;29.00;27.20;;;;;16.01;44.73;98962.16;6290494;27;96585;-74
2022/05/02 00:41:43;;;;;;;;;26.50;23.00;;;;;16.03;44.72;98960.00;6269191;27;99588;-74
2022/05/02 00:44:46;;;;;;;;;31.00;28.00;;;;;15.99;44.55;98955.31;6252533;27;98275;-74
2022/05/02 00:47:54;;;;;;;;;28.60;26.00;;;;;16.03;44.98;98965.44;6309856;27;97741;-74
2022/05/02 00:50:57;;;;;;;;;25.40;24.40;;;;;15.85;45.36;98954.06;6300531;27;96520;-74
2022/05/02 00:54:01;;;;;;;;;26.50;24.50;;;;;15.84;45.48;98961.41;6278953;27;98393;-74
2022/05/02 00:57:06;;;;;;;;;26.75;25.75;;;;;15.75;45.50;98965.66;6295197;27;96306;-74
2022/05/02 01:00:10;;;;;;;;;27.50;26.00;;;;;15.71;45.55;98967.25;6313671;27;96535;-74
2022/05/02 01:03:15;;;;;;;;;28.60;26.20;;;;;15.74;45.01;98960.47;6293146;27;97425;-73
2022/05/02 01:09:43;;;;;;;;;25.67;24.67;;;;;15.81;44.41;98956.50;6294200;27;96625;-74
2022/05/02 01:12:47;;;;;;;;;29.00;26.00;;;;;15.89;44.63;98963.38;6294275;27;96780;-74
2022/05/02 01:15:50;;;;;;;;;28.80;27.00;;;;;15.91;44.52;98961.22;6267598;27;99567;-74
2022/05/02 01:18:58;;;;;;;;;30.00;27.00;;;;;15.94;44.44;98958.00;6286951;27;96590;-74
2022/05/02 01:22:04;;;;;;;;;26.80;25.20;;;;;15.97;44.68;98954.78;6309267;27;96828;-74
2022/05/02 01:25:08;;;;;;;;;27.00;26.60;;;;;15.98;44.65;98957.22;6277214;27;100174;-74
2022/05/02 01:28:11;;;;;;;;;28.50;26.50;;;;;15.95;44.87;98959.63;6312141;27;96941;-74
2022/05/02 01:31:15;;;;;;;;;28.00;26.67;;;;;15.82;45.11;98943.72;6278937;27;98586;-74
2022/05/02 01:34:18;;;;;;;;;28.00;26.00;;;;;15.85;45.27;98951.34;6287868;27;99046;-74
2022/05/02 01:37:23;;;;;;;;;26.40;25.40;;;;;15.71;45.39;98925.66;6289407;27;96892;-74
2022/05/02 01:40:26;;;;;;;;;26.40;25.20;;;;;15.88;45.15;98951.66;6293138;27;97032;-75
2022/05/02 01:43:31;;;;;;;;;28.00;27.00;;;;;15.86;44.99;98950.28;6293995;27;97036;-75
2022/05/02 01:46:34;;;;;;;;;28.33;24.33;;;;;15.84;45.05;98947.81;6303489;27;96694;-74
2022/05/02 01:49:37;;;;;;;;;27.20;24.20;;;;;15.30;45.20;98861.78;6289162;27;97748;-74
2022/05/02 01:52:42;;;;;;;;;28.60;25.60;;;;;15.83;45.18;98948.09;6286708;27;99476;-75
2022/05/02 01:55:45;;;;;;;;;24.80;23.80;;;;;15.84;44.96;98941.56;6311477;27;96779;-75
2022/05/02 01:58:49;;;;;;;;;24.20;22.20;;;;;15.66;45.04;98920.16;6307972;27;97622;-75
2022/05/02 02:01:52;;;;;;;;;26.40;25.00;;;;;15.75;45.19;98943.09;6279998;27;97697;-75
2022/05/02 02:08:20;;;;;;;;;24.33;23.33;;;;;15.67;45.45;98938.94;6311819;27;96801;-75
2022/05/02 02:11:23;;;;;;;;;29.00;26.25;;;;;15.14;45.33;98861.63;6276389;27;98111;-74
2022/05/02 02:14:27;;;;;;;;;27.00;24.60;;;;;15.47;45.87;98931.31;6274502;27;97694;-75
2022/05/02 02:17:30;;;;;;;;;26.20;24.00;;;;;15.27;45.61;98914.75;6267953;27;96769;-75
2022/05/02 02:20:34;;;;;;;;;27.40;26.00;;;;;15.48;45.83;98929.41;6308321;27;96834;-75
2022/05/02 02:23:40;;;;;;;;;25.40;25.00;;;;;15.34;45.96;98928.97;6280249;27;96966;-75
2022/05/02 02:26:45;;;;;;;;;28.50;25.00;;;;;15.31;45.94;98921.31;6272105;27;98946;-75
2022/05/02 02:29:48;;;;;;;;;27.40;24.60;;;;;15.38;45.65;98934.72;6294367;27;97530;-75
2022/05/02 02:32:52;;;;;;;;;26.00;24.00;;;;;15.39;45.77;98937.19;6271549;27;98856;-75
2022/05/02 02:35:55;;;;;;;;;28.40;26.40;;;;;15.31;45.91;98928.63;6294118;27;96422;-75
2022/05/02 02:39:00;;;;;;;;;30.60;28.40;;;;;15.37;45.75;98947.47;6316080;27;96517;-75
2022/05/02 02:42:04;;;;;;;;;34.00;30.40;;;;;15.40;45.51;98940.69;6312040;27;96909;-75
2022/05/02 02:45:08;;;;;;;;;29.75;28.00;;;;;15.48;45.23;98937.56;6272281;27;97055;-75
2022/05/02 02:48:12;;;;;;;;;29.60;27.00;;;;;15.31;45.67;98934.06;6299502;27;96942;-75
2022/05/02 02:51:15;;;;;;;;;29.50;27.00;;;;;15.28;45.89;98950.88;6315478;27;96826;-75
2022/05/02 02:54:20;;;;;;;;;26.00;22.20;;;;;15.10;46.04;98947.34;6296450;27;97325;-75
2022/05/02 02:57:23;;;;;;;;;23.00;22.00;;;;;14.94;46.19;98953.66;6315595;27;96738;-75
2022/05/02 03:00:27;;;;;;;;;23.25;21.00;;;;;14.58;46.29;98949.53;6296045;27;96860;-75
2022/05/02 03:03:31;;;;;;;;;22.00;20.60;;;;;14.69;46.45;98953.25;6313501;27;96919;-75
2022/05/02 03:06:33;;;;;;;;;28.50;23.00;;;;;14.58;46.85;98949.53;6296428;27;96537;-75
2022/05/02 03:09:38;;;;;;;;;24.00;24.00;;;;;14.40;47.08;98949.75;6312674;27;96441;-74
2022/05/02 03:12:41;;;;;;;;;25.00;24.00;;;;;14.30;47.18;98949.56;6254636;27;97002;-75
2022/05/02 03:15:45;;;;;;;;;26.20;25.20;;;;;14.24;47.02;98955.94;6289682;27;97909;-75
2022/05/02 03:18:48;;;;;;;;;27.60;25.00;;;;;14.08;47.15;98929.59;6279848;27;98231;-75
2022/05/02 03:21:51;;;;;;;;;31.00;27.00;;;;;14.25;46.91;98950.28;6288127;27;97059;-75
2022/05/02 03:24:57;;;;;;;;;28.00;24.00;;;;;14.31;46.90;98962.06;6301142;27;97415;-75
2022/05/02 03:28:01;;;;;;;;;26.80;26.00;;;;;14.31;47.07;98952.03;6281028;27;100236;-75
2022/05/02 03:31:04;;;;;;;;;26.00;24.00;;;;;14.12;47.06;98942.44;6294169;27;98557;-74
2022/05/02 03:34:08;;;;;;;;;30.00;26.50;;;;;14.29;46.91;98937.06;6289318;27;100750;-75
2022/05/02 03:37:12;;;;;;;;;28.25;26.00;;;;;14.36;46.87;98943.19;6314940;27;96413;-74
2022/05/02 03:40:16;;;;;;;;;27.00;26.00;;;;;14.44;46.91;98944.66;6313209;27;96492;-75
2022/05/02 03:43:20;;;;;;;;;27.00;26.00;;;;;14.53;46.77;98944.03;6270068;27;97828;-75
2022/05/02 03:46:23;;;;;;;;;31.50;27.75;;;;;14.63;46.94;98946.06;6311200;27;96934;-74
2022/05/02 03:49:27;;;;;;;;;28.00;27.00;;;;;14.73;46.79;98948.97;6295683;27;96929;-75
2022/05/02 03:52:30;;;;;;;;;32.00;30.00;;;;;14.71;46.63;98935.63;6284702;27;97011;-74
2022/05/02 03:55:35;;;;;;;;;36.00;29.00;;;;;14.98;46.54;98940.38;6307359;27;97504;-75
2022/05/02 03:58:38;;;;;;;;;27.60;25.60;;;;;15.07;46.63;98944.31;6283943;27;97154;-74
2022/05/02 04:01:42;;;;;;;;;33.00;28.00;;;;;15.12;45.86;98937.06;6291077;27;96766;-75
2022/05/02 04:04:46;;;;;;;;;29.00;27.25;;;;;15.18;46.09;98941.50;6307307;27;98003;-75
2022/05/02 04:07:49;;;;;;;;;30.60;27.00;;;;;15.29;46.14;98947.09;6294973;27;97076;-75
2022/05/02 04:10:54;;;;;;;;;28.60;24.60;;;;;15.39;46.08;98949.94;6295531;27;96512;-75
2022/05/02 04:13:58;;;;;;;;;30.60;26.00;;;;;15.50;45.95;98952.53;6295439;27;96472;-75
2022/05/02 04:17:01;;;;;;;;;26.40;25.40;;;;;15.60;45.96;98960.84;6270035;27;98887;-75
2022/05/02 04:20:06;;;;;;;;;28.00;26.00;;;;;15.71;45.78;98955.53;6294495;27;96790;-75
2022/05/02 04:23:09;;;;;;;;;31.40;28.00;;;;;15.66;45.48;98944.59;6308754;27;97481;-75
2022/05/02 04:26:14;;;;;;;;;33.00;29.00;;;;;15.90;45.41;98956.84;6292513;27;97294;-74
2022/05/02 04:29:17;;;;;;;;;30.00;28.50;;;;;16.03;45.02;98968.16;6294338;27;96538;-75
2022/05/02 04:32:21;;;;;;;;;32.60;30.00;;;;;16.14;44.86;98960.09;6287941;27;98641;-74
2022/05/02 04:35:24;;;;;;;;;26.00;25.25;;;;;16.26;44.70;98960.78;6276088;27;96479;-74
2022/05/02 04:38:30;;;;;;;;;30.00;28.60;;;;;16.20;44.32;98937.34;6294432;27;100392;-73
2022/05/02 04:41:35;;;;;;;;;29.00;26.00;;;;;16.50;44.06;98962.13;6291094;27;97900;-74
2022/05/02 04:44:39;;;;;;;;;30.00;27.00;;;;;16.66;43.66;98965.84;6285485;27;97959;-75
2022/05/02 04:47:42;;;;;;;;;29.60;28.00;;;;;16.80;43.57;98959.69;6284403;27;97168;-75
2022/05/02 04:50:45;;;;;;;;;30.00;27.00;;;;;16.85;43.01;98942.56;6269187;27;97920;-75
2022/05/02 04:53:49;;;;;;;;;31.60;30.00;;;;;17.11;42.87;98952.56;6288123;27;97117;-75
2022/05/02 04:56:53;;;;;;;;;30.00;28.50;;;;;17.24;43.26;98957.56;6282302;27;97454;-75
2022/05/02 04:59:56;;;;;;;;;29.40;27.00;;;;;17.46;43.32;98959.31;6288018;27;96428;-75
2022/05/02 05:03:00;;;;;;;;;31.40;28.60;;;;;17.61;42.74;98962.97;6286366;27;96928;-75
2022/05/02 05:06:04;;;;;;;;;31.40;29.40;;;;;17.74;42.32;98970.66;6285547;27;99536;-75
2022/05/02 05:09:08;;;;;;;;;33.60;30.00;;;;;17.90;41.51;98967.97;6268462;27;96526;-75
2022/05/02 05:12:28;;;;;;;;;31.40;29.00;;;;;18.07;40.52;98980.34;6252241;27;97108;-75
2022/05/02 05:16:21;;;;;;;;;32.67;28.67;;;;;18.14;39.71;98975.44;6292447;27;96643;-74
2022/05/02 05:19:51;;;;;;;;;34.67;30.00;;;;;18.30;39.26;98961.84;6292336;27;96435;-75
2022/05/02 05:23:11;;;;;;;;;29.00;26.00;;;;;18.46;39.12;98977.16;6294491;27;96643;-75
2022/05/02 05:26:17;;;;;;;;;30.00;27.60;;;;;18.58;39.04;98969.53;6313311;27;96734;-76
2022/05/02 05:29:37;;;;;;;;;31.50;28.50;;;;;18.70;38.83;98967.38;6293776;27;99589;-75
2022/05/02 05:32:45;;;;;;;;;31.20;29.20;;;;;18.79;38.53;98968.47;6276912;27;96561;-75
2022/05/02 05:36:02;;;;;;;;;31.00;29.00;;;;;19.02;37.89;98965.19;6277036;27;97086;-75
2022/05/02 05:39:07;;;;;;;;;28.80;26.20;;;;;19.16;37.33;98968.16;6292901;27;96943;-76
2022/05/02 05:42:20;;;;;;;;;32.40;30.00;;;;;19.12;37.42;98934.28;6293528;27;98118;-74
2022/05/02 05:45:38;;;;;;;;;32.20;29.00;;;;;19.51;37.15;98961.03;6312782;27;96453;-75
2022/05/02 05:48:54;;;;;;;;;32.25;29.00;;;;;19.53;38.04;98947.91;6294195;27;97525;-75
2022/05/02 05:52:09;;;;;;;;;32.40;30.00;;;;;19.57;38.50;98955.25;6311833;27;97138;-76
2022/05/02 05:55:19;;;;;;;;;34.00;30.40;;;;;19.55;38.31;98954.72;6293570;27;98852;-75
2022/05/02 05:58:35;;;;;;;;;32.80;29.40;;;;;19.65;37.72;98957.41;6282800;27;97130;-75
2022/05/02 06:01:58;;;;;;;;;32.00;30.00;;;;;19.63;37.73;98932.28;6291635;27;96878;-75
2022/05/02 06:05:03;;;;;;;;;32.80;30.00;;;;;20.02;36.67;98961.66;6291459;27;96564;-75
2022/05/02 06:08:10;;;;;;;;;31.00;28.20;;;;;20.29;36.39;98956.56;6286831;27;97465;-75
2022/05/02 06:11:17;;;;;;;;;28.25;27.00;;;;;20.59;34.82;98959.13;6317129;27;96462;-76
2022/05/02 06:14:26;;;;;;;;;28.00;25.80;;;;;20.84;34.58;98965.53;6281179;27;97130;-75
2022/05/02 06:20:55;;;;;;;;;34.00;30.00;;;;;21.32;33.37;98955.50;6296752;27;98811;-74
2022/05/02 06:24:05;;;;;;;;;31.60;30.00;;;;;21.59;33.88;98956.59;6316536;27;97487;-75
2022/05/02 06:27:10;;;;;;;;;29.00;28.60;;;;;21.89;33.36;98965.56;6298006;27;97067;-76
2022/05/02 06:30:15;;;;;;;;;32.00;30.00;;;;;22.12;32.82;98958.44;6315731;27;96909;-75
2022/05/02 06:33:21;;;;;;;;;30.60;28.40;;;;;22.31;31.95;98957.34;6297551;27;96828;-75
2022/05/02 06:36:37;;;;;;;;;29.00;26.00;;;;;22.52;31.45;98960.63;6316220;27;96590;-75
2022/05/02 06:40:02;;;;;;;;;28.60;27.00;;;;;22.66;31.42;98950.50;6280129;27;97934;-74
2022/05/02 06:43:17;;;;;;;;;29.20;27.40;;;;;22.59;29.81;98963.78;6297276;27;97163;-75
2022/05/02 06:46:21;;;;;;;;;31.00;27.00;;;;;22.54;30.36;98965.78;6285952;27;96992;-74
2022/05/02 06:49:26;;;;;;;;;28.00;26.00;;;;;22.65;30.46;98959.84;6272516;27;96924;-74
2022/05/02 06:52:33;;;;;;;;;27.00;25.00;;;;;22.84;30.92;98960.66;6271547;27;97247;-75
2022/05/02 06:55:47;;;;;;;;;33.60;29.00;;;;;23.06;30.67;98965.53;6277916;27;96925;-75
2022/05/02 06:59:01;;;;;;;;;32.00;27.20;;;;;23.23;30.52;98971.28;6271259;27;98280;-75
2022/05/02 07:02:20;;;;;;;;;31.00;29.00;;;;;23.20;29.73;98935.31;6290173;27;97596;-75
2022/05/02 07:05:27;;;;;;;;;34.25;29.75;;;;;23.63;29.76;98971.66;6270731;27;96771;-75
2022/05/02 07:08:38;;;;;;;;;29.40;29.00;;;;;23.77;29.44;98966.97;6303235;27;96699;-74
2022/05/02 07:11:53;;;;;;;;;31.75;29.00;;;;;23.85;29.11;98968.22;6315983;27;96898;-74
2022/05/02 07:15:05;;;;;;;;;31.00;29.50;;;;;24.10;29.84;98971.25;6295994;27;96695;-75
2022/05/02 07:18:23;;;;;;;;;34.40;30.00;;;;;24.43;29.46;98980.22;6277566;27;96490;-75
2022/05/02 07:21:44;;;;;;;;;36.80;30.80;;;;;24.77;29.17;98970.59;6273513;27;99411;-75
2022/05/02 07:25:00;;;;;;;;;32.00;30.00;;;;;25.07;28.34;98966.31;6310202;27;96451;-74
2022/05/02 07:28:19;;;;;;;;;32.00;29.00;;;;;25.40;28.08;98973.97;6310465;27;96442;-74
2022/05/02 07:31:25;;;;;;;;;30.00;28.40;;;;;25.30;27.04;98970.66;6302602;27;98296;-75
2022/05/02 07:34:30;;;;;;;;;30.20;27.00;;;;;25.48;26.43;98960.50;6301064;27;97825;-75
2022/05/02 07:37:37;;;;;;;;;31.75;29.00;;;;;25.38;26.66;98962.41;6311119;27;97632;-74
2022/05/02 07:41:22;;;;;;;;;34.00;31.20;;;;;25.36;26.97;98970.19;6274195;27;97077;-75
2022/05/02 07:44:09;;;;;;;;;37.00;30.50;;;;;25.62;27.26;98972.28;6289201;27;97529;-74
2022/05/02 07:47:16;;;;;;;;;37.40;31.00;;;;;25.66;26.72;98970.53;6270818;27;97482;-75
2022/05/02 07:50:22;;;;;;;;;34.60;30.00;;;;;25.77;27.54;98969.94;6279042;27;98594;-75
2022/05/02 07:53:28;;;;;;;;;30.80;28.60;;;;;26.08;27.21;98972.63;6306916;27;96944;-74
2022/05/02 07:56:33;;;;;;;;;32.40;29.40;;;;;26.43;26.96;98958.91;6314718;27;96995;-74
2022/05/02 07:59:40;;;;;;;;;34.40;30.00;;;;;26.63;26.51;98961.03;6286547;27;96642;-74
2022/05/02 08:02:44;;;;;;;;;29.00;27.00;;;;;26.74;25.90;98943.75;6294263;27;96812;-74
2022/05/02 08:05:55;;;;;;;;;35.00;31.00;;;;;26.86;25.23;98954.22;6314508;27;96380;-74
2022/05/02 08:09:08;;;;;;;;;34.00;30.00;;;;;27.03;24.96;98962.47;6314633;27;96800;-76
2022/05/02 08:12:25;;;;;;;;;31.60;30.00;;;;;27.26;24.41;98962.28;6296375;27;96933;-76
2022/05/02 08:15:36;;;;;;;;;30.00;28.00;;;;;27.56;24.50;98959.25;6295214;27;98415;-76
2022/05/02 08:19:03;;;;;;;;;35.20;29.60;;;;;27.27;22.72;98927.94;6277968;27;97975;-76
2022/05/02 08:29:06;;;;;;;;;35.80;32.40;;;;;27.98;24.20;98968.53;6295029;27;97530;-75
2022/05/02 08:32:15;;;;;;;;;31.80;29.20;;;;;28.38;24.70;98963.44;6295104;27;96387;-76
2022/05/02 08:35:30;;;;;;;;;34.00;30.00;;;;;28.56;24.33;98964.09;6314106;27;96848;-76
2022/05/02 08:38:46;;;;;;;;;37.00;30.00;;;;;28.56;23.32;98960.53;6295553;27;97320;-75
2022/05/02 08:42:28;;;;;;;;;33.00;29.60;;;;;28.64;23.34;98957.66;6295645;27;96499;-75
2022/05/02 08:45:55;;;;;;;;;30.00;27.60;;;;;28.60;22.62;98951.19;6274097;27;97144;-76
2022/05/02 08:49:36;;;;;;;;;32.00;28.40;;;;;28.47;23.03;98948.69;6286335;27;97331;-76
2022/05/02 08:53:16;;;;;;;;;30.00;29.00;;;;;28.40;23.55;98944.47;6310554;27;97057;-75
2022/05/02 08:56:38;;;;;;;;;29.00;27.20;;;;;28.51;22.99;98941.31;6310315;27;96503;-76
2022/05/02 09:00:07;;;;;;;;;31.60;26.60;;;;;28.81;22.80;98940.09;6307314;27;97261;-75
2022/05/02 09:03:48;;;;;;;;;28.20;24.20;;;;;28.88;23.45;98936.78;6293802;27;99893;-77
2022/05/02 09:07:30;;;;;;;;;28.00;25.00;;;;;29.13;22.59;98936.50;6309544;27;97491;-77
2022/05/02 09:10:56;;;;;;;;;27.75;25.75;;;;;29.63;22.64;98930.72;6289728;27;96953;-77
2022/05/02 09:14:33;;;;;;;;;27.00;24.25;;;;;29.87;20.66;98927.13;6311693;27;97690;-77
2022/05/02 09:18:24;;;;;;;;;22.60;22.00;;;;;29.85;20.90;98925.88;6291953;27;98852;-76
2022/05/02 09:21:35;;;;;;;;;27.00;26.00;;;;;30.17;20.58;98924.13;6301898;27;99697;-76
2022/05/02 09:25:04;;;;;;;;;24.33;23.00;;;;;29.91;20.10;98916.97;6312161;27;97449;-77
2022/05/02 09:28:20;;;;;;;;;23.00;20.00;;;;;29.76;19.44;98922.41;6305026;27;96906;-76
2022/05/02 09:31:41;;;;;;;;;21.00;20.00;;;;;29.59;19.25;98915.91;6292353;27;98436;-76
2022/05/02 09:34:56;;;;;;;;;20.50;19.25;;;;;29.72;20.22;98916.72;6288585;27;99883;-76
2022/05/02 09:38:01;;;;;;;;;17.00;16.00;;;;;29.47;18.35;98896.44;6308980;27;96560;-75
2022/05/02 09:41:26;;;;;;;;;15.75;14.00;;;;;29.86;18.80;98910.84;6292990;27;96540;-76
2022/05/02 09:52:03;;;;;;;;;14.60;13.60;;;;;30.92;17.73;98894.59;6291124;27;98042;-75
2022/05/02 09:58:43;;;;;;;;;12.00;10.50;;;;;30.84;16.75;98878.84;6291980;27;96638;-75
2022/05/02 10:01:50;;;;;;;;;11.20;10.00;;;;;30.45;16.09;98891.59;6312069;27;97377;-74
2022/05/02 10:05:06;;;;;;;;;11.00;11.00;;;;;30.18;16.42;98882.06;6308979;27;97298;-74
2022/05/02 10:08:22;;;;;;;;;12.60;11.60;;;;;30.42;17.64;98882.00;6277156;27;97057;-77
2022/05/02 10:11:47;;;;;;;;;11.80;11.20;;;;;30.68;17.88;98870.47;6294044;27;97751;-77
2022/05/02 10:14:57;;;;;;;;;10.00;10.00;;;;;30.55;16.09;98843.84;6259993;27;96545;-75
2022/05/02 10:18:37;;;;;;;;;11.20;11.20;;;;;31.01;17.09;98869.34;6311175;27;96700;-75
2022/05/02 10:22:03;;;;;;;;;11.00;10.20;;;;;31.27;16.93;98856.59;6293825;27;96387;-75
2022/05/02 10:25:12;;;;;;;;;11.00;10.40;;;;;31.60;16.56;98856.22;6293208;27;96478;-76
2022/05/02 10:28:35;;;;;;;;;8.60;8.60;;;;;31.25;14.64;98858.09;6311137;27;97405;-75
2022/05/02 10:31:40;;;;;;;;;10.00;9.75;;;;;30.71;15.88;98844.69;6291597;27;97204;-75
2022/05/02 10:34:47;;;;;;;;;11.00;10.00;;;;;29.85;16.30;98821.09;6310468;27;96779;-75
2022/05/02 10:37:57;;;;;;;;;12.00;11.00;;;;;30.36;17.78;98843.66;6289805;27;97648;-75
2022/05/02 10:41:09;;;;;;;;;12.00;10.00;;;;;30.54;17.53;98850.59;6292056;27;97220;-74
2022/05/02 10:44:16;;;;;;;;;12.00;11.00;;;;;30.46;16.39;98830.09;6305269;27;97918;-74
2022/05/02 10:47:21;;;;;;;;;11.00;11.00;;;;;30.72;16.22;98834.38;6315616;27;96516;-76
2022/05/02 10:50:32;;;;;;;;;14.00;13.00;;;;;30.37;16.39;98823.84;6315260;27;97421;-76
2022/05/02 10:53:58;;;;;;;;;11.60;11.00;;;;;30.72;17.48;98829.63;6313344;27;97562;-76
2022/05/02 10:57:12;;;;;;;;;10.25;10.00;;;;;30.94;17.30;98797.59;6316670;27;97325;-76
2022/05/02 11:00:16;;;;;;;;;12.75;12.75;;;;;31.51;17.38;98827.72;6297279;27;98125;-75
2022/05/02 11:03:42;;;;;;;;;13.00;11.60;;;;;31.94;16.82;98820.34;6311314;27;96561;-75
2022/05/02 11:06:57;;;;;;;;;12.00;11.00;;;;;32.32;15.44;98819.59;6290483;27;96569;-75
2022/05/02 11:10:07;;;;;;;;;10.80;10.40;;;;;32.22;15.28;98826.56;6273003;27;96689;-74
2022/05/02 11:13:25;;;;;;;;;12.00;11.00;;;;;31.93;15.64;98791.66;6314990;27;97417;-74
2022/05/02 11:16:39;;;;;;;;;10.20;9.20;;;;;32.10;15.40;98821.97;6315089;27;96533;-75
2022/05/02 11:23:37;;;;;;;;;12.00;11.00;;;;;32.65;17.07;98808.72;6306029;27;96562;-74
2022/05/02 11:26:45;;;;;;;;;10.00;10.00;;;;;32.97;15.89;98812.13;6270344;27;98692;-76
2022/05/02 11:29:57;;;;;;;;;9.25;9.25;;;;;33.04;15.34;98806.66;6290383;27;96471;-75
2022/05/02 11:33:11;;;;;;;;;12.00;11.00;;;;;33.05;14.58;98814.66;6293234;27;98330;-75
2022/05/02 11:36:17;;;;;;;;;11.80;11.00;;;;;33.07;14.82;98811.50;6313879;27;97410;-75
2022/05/02 11:39:31;;;;;;;;;11.25;9.00;;;;;33.08;14.65;98796.38;6278265;27;97069;-74
2022/05/02 11:42:38;;;;;;;;;11.50;11.00;;;;;33.18;14.79;98803.34;6295874;27;96943;-75
2022/05/02 11:45:44;;;;;;;;;12.00;10.00;;;;;33.32;14.94;98792.41;6270968;27;96926;-75
2022/05/02 11:49:19;;;;;;;;;9.60;9.00;;;;;33.50;14.10;98790.69;6270342;27;97557;-75
2022/05/02 11:52:31;;;;;;;;;13.60;12.00;;;;;33.67;13.99;98792.16;6289091;27;97452;-74
2022/05/02 11:55:40;;;;;;;;;11.40;10.60;;;;;33.25;13.34;98784.72;6271072;27;96495;-74
2022/05/02 11:58:46;;;;;;;;;13.00;12.40;;;;;33.30;14.63;98783.59;6284312;27;97473;-74
2022/05/02 12:01:59;;;;;;;;;11.20;11.20;;;;;33.16;14.52;98791.72;6315082;27;97039;-74
2022/05/02 12:05:18;;;;;;;;;12.00;11.00;;;;;32.83;15.18;98789.53;6278523;27;97009;-74
2022/05/02 12:08:35;;;;;;;;;9.00;9.00;;;;;32.55;14.58;98786.97;6296399;27;96453;-75
2022/05/02 12:11:54;;;;;;;;;9.00;9.00;;;;;32.45;15.71;98776.44;6295003;27;98450;-74
2022/05/02 12:15:02;;;;;;;;;12.67;11.67;;;;;32.50;14.25;98778.94;6296521;27;97066;-75
2022/05/02 12:18:08;;;;;;;;;12.40;11.00;;;;;32.76;15.92;98775.44;6313979;27;97060;-74
2022/05/02 12:21:16;;;;;;;;;10.80;10.00;;;;;32.98;15.73;98769.06;6295172;27;97753;-74
2022/05/02 12:24:28;;;;;;;;;14.00;12.00;;;;;32.91;15.10;98760.56;6295344;27;96747;-74
2022/05/02 12:27:34;;;;;;;;;11.20;11.20;;;;;33.09;14.46;98759.66;6276755;27;98195;-74
2022/05/02 12:30:39;;;;;;;;;11.25;10.25;;;;;33.24;14.54;98760.72;6288755;27;96421;-74
2022/05/02 12:33:48;;;;;;;;;11.00;10.80;;;;;33.05;14.42;98739.25;6252963;27;96821;-74
2022/05/02 12:36:55;;;;;;;;;10.50;10.00;;;;;32.96;14.76;98735.91;6288956;27;96364;-75
2022/05/02 12:40:05;;;;;;;;;11.00;11.00;;;;;33.07;15.43;98736.09;6288832;27;97388;-75
2022/05/02 12:43:26;;;;;;;;;13.40;13.00;;;;;33.18;13.79;98733.50;6269475;27;98904;-74
2022/05/02 12:46:38;;;;;;;;;12.00;12.00;;;;;32.95;14.43;98733.47;6289126;27;96540;-74
2022/05/02 12:49:55;;;;;;;;;12.60;12.00;;;;;32.58;14.94;98733.22;6289146;27;96707;-76
2022/05/02 12:53:01;;;;;;;;;11.80;11.40;;;;;32.27;14.96;98737.00;6269314;27;98486;-74
2022/05/02 12:56:06;;;;;;;;;12.00;12.00;;;;;31.55;15.05;98739.44;6269774;27;97003;-75
2022/05/02 13:02:34;;;;;;;;;10.60;10.00;;;;;31.08;15.98;98720.03;6268547;27;96422;-74
2022/05/02 13:05:40;;;;;;;;;11.00;11.00;;;;;31.04;16.06;98723.88;6288184;27;96473;-75
2022/05/02 13:08:44;;;;;;;;;10.00;9.40;;;;;30.96;15.97;98722.88;6288226;27;97060;-74
2022/05/02 13:11:48;;;;;;;;;12.00;11.00;;;;;30.95;16.09;98724.84;6269969;27;97939;-74
2022/05/02 13:14:59;;;;;;;;;13.00;11.50;;;;;31.03;16.02;98709.16;6269420;27;98069;-75
2022/05/02 13:18:06;;;;;;;;;14.00;12.40;;;;;31.29;14.84;98711.34;6287165;27;97536;-74
2022/05/02 13:21:27;;;;;;;;;10.75;10.00;;;;;31.28;15.90;98707.75;6272732;27;98734;-74
2022/05/02 13:24:30;;;;;;;;;11.00;10.00;;;;;31.17;15.53;98700.34;6312227;27;96451;-75
2022/05/02 13:27:42;;;;;;;;;13.00;11.00;;;;;30.74;15.74;98673.44;6276953;27;99901;-74
2022/05/02 13:30:54;;;;;;;;;11.50;10.50;;;;;30.78;15.95;98696.59;6312366;27;97534;-74
2022/05/02 13:34:01;;;;;;;;;11.75;11.00;;;;;30.76;16.36;98683.00;6286049;27;96715;-74
2022/05/02 13:37:11;;;;;;;;;12.00;11.00;;;;;31.07;15.18;98706.47;6289927;27;97450;-75
2022/05/02 13:40:18;;;;;;;;;12.00;11.00;;;;;30.88;15.23;98702.41;6308420;27;97114;-74
2022/05/02 13:43:34;;;;;;;;;12.00;12.00;;;;;30.67;15.79;98687.97;6307944;27;98074;-74
2022/05/02 13:46:52;;;;;;;;;11.00;10.00;;;;;30.58;17.40;98700.44;6306606;27;96991;-74
2022/05/02 13:50:14;;;;;;;;;11.80;11.00;;;;;30.66;16.64;98702.22;6311403;27;97142;-75
2022/05/02 13:53:33;;;;;;;;;12.00;11.00;;;;;30.69;16.83;98696.75;6311528;27;98082;-75
2022/05/02 13:56:56;;;;;;;;;12.00;12.00;;;;;30.44;15.82;98692.50;6288971;27;97872;-74
2022/05/02 14:01:14;;;;;;;;;11.40;11.00;;;;;30.35;17.03;98681.53;6283517;27;97583;-76
2022/05/02 14:03:48;;;;;;;;;10.00;10.00;;;;;30.23;17.10;98683.56;6305976;27;97500;-76
2022/05/02 14:07:05;;;;;;;;;12.00;11.00;;;;;30.15;17.30;98690.13;6289781;27;96731;-75
2022/05/02 14:10:09;;;;;;;;;10.40;10.40;;;;;30.08;17.72;98683.19;6271538;27;97045;-73
2022/05/02 14:13:17;;;;;;;;;12.25;10.25;;;;;29.87;16.30;98670.63;6259630;27;98187;-74
2022/05/02 14:16:20;;;;;;;;;12.00;10.60;;;;;29.76;16.97;98678.69;6266676;27;97225;-74
2022/05/02 14:19:26;;;;;;;;;13.20;12.80;;;;;29.57;17.07;98673.75;6289618;27;98051;-74
2022/05/02 14:22:37;;;;;;;;;10.00;9.20;;;;;28.97;17.55;98671.88;6306352;27;96887;-74
2022/05/02 14:25:42;;;;;;;;;11.40;10.40;;;;;28.76;17.99;98669.22;6254904;27;97008;-74
2022/05/02 14:28:46;;;;;;;;;11.00;10.00;;;;;28.60;17.70;98670.22;6290651;27;97446;-75
2022/05/02 14:31:50;;;;;;;;;10.40;10.00;;;;;28.45;17.92;98666.16;6291064;27;97143;-74
2022/05/02 14:34:55;;;;;;;;;12.25;12.00;;;;;28.54;18.34;98661.31;6306402;27;96583;-74
2022/05/02 14:37:59;;;;;;;;;11.00;10.00;;;;;28.72;18.54;98659.16;6291240;27;96554;-74
2022/05/02 14:41:02;;;;;;;;;14.00;13.00;;;;;28.63;17.69;98658.44;6290638;27;96368;-73
2022/05/02 14:44:08;;;;;;;;;11.80;10.00;;;;;28.49;17.64;98649.66;6280140;27;99570;-74
2022/05/02 14:47:16;;;;;;;;;14.00;13.00;;;;;28.19;17.44;98652.59;6316780;27;96923;-76
2022/05/02 14:50:21;;;;;;;;;11.00;10.80;;;;;28.14;17.37;98649.25;6316352;27;97429;-74
2022/05/02 14:53:28;;;;;;;;;10.80;9.80;;;;;27.93;17.44;98646.50;6296925;27;96942;-74
2022/05/02 14:56:39;;;;;;;;;13.00;12.40;;;;;28.05;18.53;98646.53;6316456;27;98707;-74
2022/05/02 14:59:45;;;;;;;;;12.00;10.50;;;;;27.83;17.78;98644.97;6279940;27;96612;-74
2022/05/02 15:02:51;;;;;;;;;10.50;10.50;;;;;27.89;18.90;98645.56;6279970;27;98393;-75
2022/05/02 15:05:57;;;;;;;;;11.00;11.00;;;;;27.74;17.49;98644.22;6296013;27;97440;-74
2022/05/02 15:13:23;;;;;;;;;11.00;11.00;;;;;27.47;18.20;98648.34;6201767;27;98195;-75